sensor_id;sensor_type;location;lat;lon;timestamp;P1;durP1;ratioP1;P2;durP2;ratioP2
74612;SDS011;63119;51.788;8.824;2023-05-15T00:00:24;6.90;;;4.87;;
74612;SDS011;63119;51.788;8.824;2023-05-15T00:02:49;7.50;;;5.07;;
74612;SDS011;63119;51.788;8.824;2023-05-15T00:05:15;7.63;;;5.65;;
74612;SDS011;63119;51.788;8.824;2023-05-15T00:07:40;9.70;;;5.43;;
74612;SDS011;63119;51.788;8.824;2023-05-15T00:10:05;6.87;;;5.93;;
74612;SDS011;63119;51.788;8.824;2023-05-15T00:12:31;9.70;;;5.65;;
74612;SDS011;63119;51.788;8.824;2023-05-15T00:14:57;8.63;;;5.87;;
74612;SDS011;63119;51.788;8.824;2023-05-15T00:17:22;7.73;;;5.30;;
74612;SDS011;63119;51.788;8.824;2023-05-15T00:19:47;8.87;;;5.70;;
74612;SDS011;63119;51.788;8.824;2023-05-15T00:22:12;8.73;;;5.87;;
74612;SDS011;63119;51.788;8.824;2023-05-15T00:24:38;6.33;;;4.80;;
74612;SDS011;63119;51.788;8.824;2023-05-15T00:27:03;8.90;;;5.50;;
74612;SDS011;63119;51.788;8.824;2023-05-15T00:29:28;5.45;;;4.28;;
74612;SDS011;63119;51.788;8.824;2023-05-15T00:31:54;8.15;;;5.18;;
74612;SDS011;63119;51.788;8.824;2023-05-15T00:34:20;6.70;;;5.13;;
74612;SDS011;63119;51.788;8.824;2023-05-15T00:36:45;11.90;;;5.03;;
74612;SDS011;63119;51.788;8.824;2023-05-15T00:39:11;6.50;;;4.90;;
74612;SDS011;63119;51.788;8.824;2023-05-15T00:41:36;6.37;;;4.53;;
74612;SDS011;63119;51.788;8.824;2023-05-15T00:46:31;7.55;;;4.65;;
74612;SDS011;63119;51.788;8.824;2023-05-15T00:48:56;10.45;;;4.80;;
74612;SDS011;63119;51.788;8.824;2023-05-15T00:51:23;6.28;;;4.78;;
74612;SDS011;63119;51.788;8.824;2023-05-15T00:53:50;10.95;;;5.07;;
74612;SDS011;63119;51.788;8.824;2023-05-15T00:56:16;5.28;;;4.15;;
74612;SDS011;63119;51.788;8.824;2023-05-15T00:58:41;5.97;;;4.65;;
74612;SDS011;63119;51.788;8.824;2023-05-15T01:01:10;5.60;;;4.38;;
74612;SDS011;63119;51.788;8.824;2023-05-15T01:03:35;9.50;;;5.05;;
74612;SDS011;63119;51.788;8.824;2023-05-15T01:06:01;9.73;;;4.63;;
74612;SDS011;63119;51.788;8.824;2023-05-15T01:11:08;5.80;;;4.80;;
74612;SDS011;63119;51.788;8.824;2023-05-15T01:13:34;6.85;;;4.78;;
74612;SDS011;63119;51.788;8.824;2023-05-15T01:15:59;5.60;;;4.32;;
74612;SDS011;63119;51.788;8.824;2023-05-15T01:18:25;6.80;;;4.82;;
74612;SDS011;63119;51.788;8.824;2023-05-15T01:26:33;7.55;;;4.22;;
74612;SDS011;63119;51.788;8.824;2023-05-15T01:32:08;7.38;;;4.75;;
74612;SDS011;63119;51.788;8.824;2023-05-15T01:34:46;7.95;;;4.22;;
74612;SDS011;63119;51.788;8.824;2023-05-15T01:37:16;8.15;;;4.25;;
74612;SDS011;63119;51.788;8.824;2023-05-15T01:39:45;7.60;;;4.93;;
74612;SDS011;63119;51.788;8.824;2023-05-15T01:42:14;7.50;;;4.90;;
74612;SDS011;63119;51.788;8.824;2023-05-15T01:44:50;7.03;;;4.70;;
74612;SDS011;63119;51.788;8.824;2023-05-15T01:47:25;6.80;;;4.88;;
74612;SDS011;63119;51.788;8.824;2023-05-15T01:49:54;7.88;;;4.75;;
74612;SDS011;63119;51.788;8.824;2023-05-15T01:52:34;7.30;;;4.95;;
74612;SDS011;63119;51.788;8.824;2023-05-15T01:55:02;5.30;;;3.70;;
74612;SDS011;63119;51.788;8.824;2023-05-15T01:57:29;5.95;;;4.00;;
74612;SDS011;63119;51.788;8.824;2023-05-15T01:59:55;5.15;;;4.10;;
74612;SDS011;63119;51.788;8.824;2023-05-15T02:02:22;4.97;;;3.88;;
74612;SDS011;63119;51.788;8.824;2023-05-15T02:04:48;5.32;;;4.07;;
74612;SDS011;63119;51.788;8.824;2023-05-15T02:07:15;5.57;;;4.32;;
74612;SDS011;63119;51.788;8.824;2023-05-15T02:09:41;7.43;;;4.57;;
74612;SDS011;63119;51.788;8.824;2023-05-15T02:12:07;7.22;;;4.82;;
74612;SDS011;63119;51.788;8.824;2023-05-15T02:14:34;7.18;;;4.68;;
74612;SDS011;63119;51.788;8.824;2023-05-15T02:17:01;6.68;;;4.82;;
74612;SDS011;63119;51.788;8.824;2023-05-15T02:19:26;5.23;;;4.10;;
74612;SDS011;63119;51.788;8.824;2023-05-15T02:21:51;6.77;;;4.33;;
74612;SDS011;63119;51.788;8.824;2023-05-15T02:24:16;5.13;;;4.23;;
74612;SDS011;63119;51.788;8.824;2023-05-15T02:26:45;8.77;;;4.67;;
74612;SDS011;63119;51.788;8.824;2023-05-15T02:31:55;6.43;;;4.50;;
74612;SDS011;63119;51.788;8.824;2023-05-15T02:37:03;7.80;;;4.60;;
74612;SDS011;63119;51.788;8.824;2023-05-15T02:39:33;7.93;;;4.95;;
74612;SDS011;63119;51.788;8.824;2023-05-15T02:41:59;6.53;;;4.63;;
74612;SDS011;63119;51.788;8.824;2023-05-15T02:44:25;6.43;;;4.43;;
74612;SDS011;63119;51.788;8.824;2023-05-15T02:46:51;6.85;;;4.47;;
74612;SDS011;63119;51.788;8.824;2023-05-15T02:49:18;5.82;;;4.57;;
74612;SDS011;63119;51.788;8.824;2023-05-15T02:51:44;7.50;;;4.47;;
74612;SDS011;63119;51.788;8.824;2023-05-15T02:54:09;6.13;;;4.40;;
74612;SDS011;63119;51.788;8.824;2023-05-15T02:56:35;8.18;;;4.82;;
74612;SDS011;63119;51.788;8.824;2023-05-15T02:59:00;6.60;;;4.35;;
74612;SDS011;63119;51.788;8.824;2023-05-15T03:01:26;9.80;;;5.32;;
74612;SDS011;63119;51.788;8.824;2023-05-15T03:03:51;5.37;;;4.30;;
74612;SDS011;63119;51.788;8.824;2023-05-15T03:06:17;6.18;;;5.07;;
74612;SDS011;63119;51.788;8.824;2023-05-15T03:08:42;5.75;;;4.25;;
74612;SDS011;63119;51.788;8.824;2023-05-15T03:11:08;6.13;;;4.40;;
74612;SDS011;63119;51.788;8.824;2023-05-15T03:13:34;7.40;;;4.40;;
74612;SDS011;63119;51.788;8.824;2023-05-15T03:15:59;8.70;;;4.90;;
74612;SDS011;63119;51.788;8.824;2023-05-15T03:18:25;7.38;;;4.93;;
74612;SDS011;63119;51.788;8.824;2023-05-15T03:20:50;7.00;;;4.67;;
74612;SDS011;63119;51.788;8.824;2023-05-15T03:23:16;7.78;;;5.13;;
74612;SDS011;63119;51.788;8.824;2023-05-15T03:25:41;7.40;;;5.20;;
74612;SDS011;63119;51.788;8.824;2023-05-15T03:28:07;5.27;;;4.23;;
74612;SDS011;63119;51.788;8.824;2023-05-15T03:30:32;7.10;;;5.17;;
74612;SDS011;63119;51.788;8.824;2023-05-15T03:32:57;7.73;;;5.13;;
74612;SDS011;63119;51.788;8.824;2023-05-15T03:35:22;5.87;;;4.47;;
74612;SDS011;63119;51.788;8.824;2023-05-15T03:37:48;7.75;;;4.85;;
74612;SDS011;63119;51.788;8.824;2023-05-15T03:40:13;7.93;;;4.73;;
74612;SDS011;63119;51.788;8.824;2023-05-15T03:42:39;8.50;;;5.57;;
74612;SDS011;63119;51.788;8.824;2023-05-15T03:45:04;7.13;;;5.00;;
74612;SDS011;63119;51.788;8.824;2023-05-15T03:47:30;7.78;;;5.13;;
74612;SDS011;63119;51.788;8.824;2023-05-15T03:49:55;8.37;;;4.87;;
74612;SDS011;63119;51.788;8.824;2023-05-15T03:52:20;6.80;;;5.00;;
74612;SDS011;63119;51.788;8.824;2023-05-15T03:54:46;6.07;;;4.97;;
74612;SDS011;63119;51.788;8.824;2023-05-15T03:57:11;7.85;;;5.32;;
74612;SDS011;63119;51.788;8.824;2023-05-15T03:59:37;9.77;;;5.05;;
74612;SDS011;63119;51.788;8.824;2023-05-15T04:02:02;8.30;;;5.00;;
74612;SDS011;63119;51.788;8.824;2023-05-15T04:04:27;8.27;;;5.10;;
74612;SDS011;63119;51.788;8.824;2023-05-15T04:06:53;5.90;;;4.60;;
74612;SDS011;63119;51.788;8.824;2023-05-15T04:09:18;6.23;;;4.90;;
74612;SDS011;63119;51.788;8.824;2023-05-15T04:11:43;6.00;;;4.43;;
74612;SDS011;63119;51.788;8.824;2023-05-15T04:14:10;6.70;;;4.90;;
74612;SDS011;63119;51.788;8.824;2023-05-15T04:16:36;9.35;;;6.03;;
74612;SDS011;63119;51.788;8.824;2023-05-15T04:19:01;7.97;;;5.53;;
74612;SDS011;63119;51.788;8.824;2023-05-15T04:21:26;7.27;;;5.37;;
74612;SDS011;63119;51.788;8.824;2023-05-15T04:23:52;10.50;;;6.00;;
74612;SDS011;63119;51.788;8.824;2023-05-15T04:26:17;7.47;;;5.50;;
74612;SDS011;63119;51.788;8.824;2023-05-15T04:28:42;10.07;;;5.20;;
74612;SDS011;63119;51.788;8.824;2023-05-15T04:31:07;8.00;;;5.73;;
74612;SDS011;63119;51.788;8.824;2023-05-15T04:33:33;8.50;;;5.13;;
74612;SDS011;63119;51.788;8.824;2023-05-15T04:35:58;8.63;;;5.27;;
74612;SDS011;63119;51.788;8.824;2023-05-15T04:38:23;12.98;;;5.75;;
74612;SDS011;63119;51.788;8.824;2023-05-15T04:40:49;11.33;;;6.03;;
74612;SDS011;63119;51.788;8.824;2023-05-15T04:43:14;8.00;;;5.13;;
74612;SDS011;63119;51.788;8.824;2023-05-15T04:45:39;8.17;;;4.73;;
74612;SDS011;63119;51.788;8.824;2023-05-15T04:48:05;10.27;;;5.32;;
74612;SDS011;63119;51.788;8.824;2023-05-15T04:50:30;9.32;;;5.80;;
74612;SDS011;63119;51.788;8.824;2023-05-15T04:52:55;7.07;;;5.27;;
74612;SDS011;63119;51.788;8.824;2023-05-15T04:55:21;8.88;;;6.10;;
74612;SDS011;63119;51.788;8.824;2023-05-15T04:57:46;9.03;;;5.60;;
74612;SDS011;63119;51.788;8.824;2023-05-15T05:00:12;7.07;;;5.30;;
74612;SDS011;63119;51.788;8.824;2023-05-15T05:02:38;7.80;;;6.10;;
74612;SDS011;63119;51.788;8.824;2023-05-15T05:05:05;9.23;;;5.30;;
74612;SDS011;63119;51.788;8.824;2023-05-15T05:07:34;10.73;;;5.55;;
74612;SDS011;63119;51.788;8.824;2023-05-15T05:09:59;10.07;;;6.97;;
74612;SDS011;63119;51.788;8.824;2023-05-15T05:12:25;7.57;;;6.07;;
74612;SDS011;63119;51.788;8.824;2023-05-15T05:14:50;9.40;;;5.50;;
74612;SDS011;63119;51.788;8.824;2023-05-15T05:17:15;7.00;;;5.50;;
74612;SDS011;63119;51.788;8.824;2023-05-15T05:19:40;7.47;;;5.28;;
74612;SDS011;63119;51.788;8.824;2023-05-15T05:22:06;8.57;;;5.63;;
74612;SDS011;63119;51.788;8.824;2023-05-15T05:24:32;10.90;;;5.70;;
74612;SDS011;63119;51.788;8.824;2023-05-15T05:26:59;8.80;;;6.07;;
74612;SDS011;63119;51.788;8.824;2023-05-15T05:29:25;7.97;;;5.50;;
74612;SDS011;63119;51.788;8.824;2023-05-15T05:31:50;8.93;;;5.95;;
74612;SDS011;63119;51.788;8.824;2023-05-15T05:34:16;7.95;;;5.50;;
74612;SDS011;63119;51.788;8.824;2023-05-15T05:36:41;9.30;;;5.87;;
74612;SDS011;63119;51.788;8.824;2023-05-15T05:39:06;6.97;;;5.50;;
74612;SDS011;63119;51.788;8.824;2023-05-15T05:41:31;8.20;;;5.60;;
74612;SDS011;63119;51.788;8.824;2023-05-15T05:43:57;12.68;;;6.15;;
74612;SDS011;63119;51.788;8.824;2023-05-15T05:46:22;8.43;;;5.17;;
74612;SDS011;63119;51.788;8.824;2023-05-15T05:48:47;8.87;;;5.90;;
74612;SDS011;63119;51.788;8.824;2023-05-15T05:51:13;7.70;;;5.90;;
74612;SDS011;63119;51.788;8.824;2023-05-15T05:53:39;8.07;;;6.38;;
74612;SDS011;63119;51.788;8.824;2023-05-15T05:56:04;8.02;;;5.43;;
74612;SDS011;63119;51.788;8.824;2023-05-15T05:58:30;9.00;;;5.95;;
74612;SDS011;63119;51.788;8.824;2023-05-15T06:00:55;7.87;;;5.53;;
74612;SDS011;63119;51.788;8.824;2023-05-15T06:03:21;9.85;;;6.28;;
74612;SDS011;63119;51.788;8.824;2023-05-15T06:05:48;8.18;;;5.30;;
74612;SDS011;63119;51.788;8.824;2023-05-15T06:08:14;9.93;;;5.85;;
74612;SDS011;63119;51.788;8.824;2023-05-15T06:10:39;9.23;;;5.68;;
74612;SDS011;63119;51.788;8.824;2023-05-15T06:13:06;6.40;;;5.05;;
74612;SDS011;63119;51.788;8.824;2023-05-15T06:15:31;8.68;;;5.82;;
74612;SDS011;63119;51.788;8.824;2023-05-15T06:17:57;9.10;;;5.63;;
74612;SDS011;63119;51.788;8.824;2023-05-15T06:20:22;7.77;;;5.83;;
74612;SDS011;63119;51.788;8.824;2023-05-15T06:22:47;11.33;;;5.37;;
74612;SDS011;63119;51.788;8.824;2023-05-15T06:25:13;8.38;;;5.90;;
74612;SDS011;63119;51.788;8.824;2023-05-15T06:27:39;9.40;;;6.05;;
74612;SDS011;63119;51.788;8.824;2023-05-15T06:30:05;7.95;;;5.50;;
74612;SDS011;63119;51.788;8.824;2023-05-15T06:32:31;7.20;;;5.43;;
74612;SDS011;63119;51.788;8.824;2023-05-15T06:34:57;8.43;;;6.50;;
74612;SDS011;63119;51.788;8.824;2023-05-15T06:37:22;11.32;;;6.75;;
74612;SDS011;63119;51.788;8.824;2023-05-15T06:39:48;9.37;;;5.60;;
74612;SDS011;63119;51.788;8.824;2023-05-15T06:42:14;7.75;;;5.95;;
74612;SDS011;63119;51.788;8.824;2023-05-15T06:44:39;12.20;;;6.83;;
74612;SDS011;63119;51.788;8.824;2023-05-15T06:47:05;9.23;;;6.80;;
74612;SDS011;63119;51.788;8.824;2023-05-15T06:49:30;9.63;;;6.95;;
74612;SDS011;63119;51.788;8.824;2023-05-15T06:51:55;7.90;;;6.00;;
74612;SDS011;63119;51.788;8.824;2023-05-15T06:54:21;9.00;;;6.13;;
74612;SDS011;63119;51.788;8.824;2023-05-15T06:56:46;10.47;;;6.13;;
74612;SDS011;63119;51.788;8.824;2023-05-15T06:59:11;8.37;;;5.90;;
74612;SDS011;63119;51.788;8.824;2023-05-15T07:01:36;10.60;;;6.47;;
74612;SDS011;63119;51.788;8.824;2023-05-15T07:04:02;8.30;;;6.57;;
74612;SDS011;63119;51.788;8.824;2023-05-15T07:06:27;9.35;;;6.78;;
74612;SDS011;63119;51.788;8.824;2023-05-15T07:08:53;10.00;;;6.80;;
74612;SDS011;63119;51.788;8.824;2023-05-15T07:11:18;9.17;;;6.97;;
74612;SDS011;63119;51.788;8.824;2023-05-15T07:13:43;10.00;;;6.20;;
74612;SDS011;63119;51.788;8.824;2023-05-15T07:16:08;8.53;;;6.53;;
74612;SDS011;63119;51.788;8.824;2023-05-15T07:18:34;8.97;;;6.30;;
74612;SDS011;63119;51.788;8.824;2023-05-15T07:20:59;9.82;;;6.72;;
74612;SDS011;63119;51.788;8.824;2023-05-15T07:23:25;7.93;;;6.37;;
74612;SDS011;63119;51.788;8.824;2023-05-15T07:25:51;9.83;;;6.67;;
74612;SDS011;63119;51.788;8.824;2023-05-15T07:30:43;11.40;;;6.20;;
74612;SDS011;63119;51.788;8.824;2023-05-15T07:33:08;10.17;;;7.47;;
74612;SDS011;63119;51.788;8.824;2023-05-15T07:35:33;10.63;;;6.47;;
74612;SDS011;63119;51.788;8.824;2023-05-15T07:37:59;9.53;;;6.23;;
74612;SDS011;63119;51.788;8.824;2023-05-15T07:40:24;9.07;;;6.47;;
74612;SDS011;63119;51.788;8.824;2023-05-15T07:42:49;8.87;;;6.17;;
74612;SDS011;63119;51.788;8.824;2023-05-15T07:45:14;11.97;;;6.70;;
74612;SDS011;63119;51.788;8.824;2023-05-15T07:47:44;9.97;;;6.40;;
74612;SDS011;63119;51.788;8.824;2023-05-15T07:50:10;9.02;;;6.72;;
74612;SDS011;63119;51.788;8.824;2023-05-15T07:52:36;12.57;;;6.93;;
74612;SDS011;63119;51.788;8.824;2023-05-15T07:55:01;9.50;;;6.87;;
74612;SDS011;63119;51.788;8.824;2023-05-15T07:57:27;8.07;;;6.47;;
74612;SDS011;63119;51.788;8.824;2023-05-15T07:59:53;13.50;;;7.40;;
74612;SDS011;63119;51.788;8.824;2023-05-15T08:02:18;8.00;;;6.37;;
74612;SDS011;63119;51.788;8.824;2023-05-15T08:04:43;9.47;;;6.37;;
74612;SDS011;63119;51.788;8.824;2023-05-15T08:07:08;9.00;;;6.53;;
74612;SDS011;63119;51.788;8.824;2023-05-15T08:09:34;10.32;;;7.32;;
74612;SDS011;63119;51.788;8.824;2023-05-15T08:12:15;8.83;;;6.50;;
74612;SDS011;63119;51.788;8.824;2023-05-15T08:14:50;9.43;;;7.10;;
74612;SDS011;63119;51.788;8.824;2023-05-15T08:17:17;9.75;;;6.72;;
74612;SDS011;63119;51.788;8.824;2023-05-15T08:19:43;8.88;;;6.70;;
74612;SDS011;63119;51.788;8.824;2023-05-15T08:22:08;12.82;;;7.32;;
74612;SDS011;63119;51.788;8.824;2023-05-15T08:24:34;10.35;;;7.45;;
74612;SDS011;63119;51.788;8.824;2023-05-15T08:26:59;10.63;;;6.87;;
74612;SDS011;63119;51.788;8.824;2023-05-15T08:29:24;12.10;;;6.70;;
74612;SDS011;63119;51.788;8.824;2023-05-15T08:31:50;11.10;;;7.10;;
74612;SDS011;63119;51.788;8.824;2023-05-15T08:34:15;11.45;;;7.35;;
74612;SDS011;63119;51.788;8.824;2023-05-15T08:36:40;9.30;;;7.53;;
74612;SDS011;63119;51.788;8.824;2023-05-15T08:39:06;8.70;;;7.00;;
74612;SDS011;63119;51.788;8.824;2023-05-15T08:41:35;9.13;;;7.28;;
74612;SDS011;63119;51.788;8.824;2023-05-15T08:44:04;10.75;;;6.97;;
74612;SDS011;63119;51.788;8.824;2023-05-15T08:46:32;10.20;;;7.68;;
74612;SDS011;63119;51.788;8.824;2023-05-15T08:48:59;10.57;;;7.82;;
74612;SDS011;63119;51.788;8.824;2023-05-15T08:51:30;12.43;;;7.38;;
74612;SDS011;63119;51.788;8.824;2023-05-15T08:53:55;12.17;;;7.93;;
74612;SDS011;63119;51.788;8.824;2023-05-15T08:56:21;13.43;;;7.85;;
74612;SDS011;63119;51.788;8.824;2023-05-15T08:58:46;11.52;;;8.10;;
74612;SDS011;63119;51.788;8.824;2023-05-15T09:01:12;11.18;;;8.00;;
74612;SDS011;63119;51.788;8.824;2023-05-15T09:03:38;12.55;;;8.43;;
74612;SDS011;63119;51.788;8.824;2023-05-15T09:06:03;11.83;;;8.17;;
74612;SDS011;63119;51.788;8.824;2023-05-15T09:08:29;9.15;;;7.68;;
74612;SDS011;63119;51.788;8.824;2023-05-15T09:13:24;10.70;;;7.70;;
74612;SDS011;63119;51.788;8.824;2023-05-15T09:15:49;11.68;;;7.93;;
74612;SDS011;63119;51.788;8.824;2023-05-15T09:18:15;11.73;;;8.70;;
74612;SDS011;63119;51.788;8.824;2023-05-15T09:20:41;10.20;;;7.63;;
74612;SDS011;63119;51.788;8.824;2023-05-15T09:23:20;8.93;;;7.57;;
74612;SDS011;63119;51.788;8.824;2023-05-15T09:25:50;9.95;;;7.70;;
74612;SDS011;63119;51.788;8.824;2023-05-15T09:28:27;10.35;;;8.80;;
74612;SDS011;63119;51.788;8.824;2023-05-15T09:33:30;11.00;;;8.00;;
74612;SDS011;63119;51.788;8.824;2023-05-15T09:36:01;13.20;;;8.90;;
74612;SDS011;63119;51.788;8.824;2023-05-15T09:38:27;13.18;;;9.32;;
74612;SDS011;63119;51.788;8.824;2023-05-15T09:40:59;11.35;;;8.60;;
74612;SDS011;63119;51.788;8.824;2023-05-15T09:43:32;11.63;;;8.57;;
74612;SDS011;63119;51.788;8.824;2023-05-15T09:45:58;10.88;;;7.93;;
74612;SDS011;63119;51.788;8.824;2023-05-15T09:48:24;10.33;;;8.20;;
74612;SDS011;63119;51.788;8.824;2023-05-15T09:50:49;10.93;;;8.88;;
74612;SDS011;63119;51.788;8.824;2023-05-15T09:53:14;12.10;;;8.55;;
74612;SDS011;63119;51.788;8.824;2023-05-15T09:55:40;15.93;;;9.25;;
74612;SDS011;63119;51.788;8.824;2023-05-15T09:58:07;9.00;;;7.75;;
74612;SDS011;63119;51.788;8.824;2023-05-15T10:00:34;12.90;;;8.60;;
74612;SDS011;63119;51.788;8.824;2023-05-15T10:03:00;10.80;;;8.80;;
74612;SDS011;63119;51.788;8.824;2023-05-15T10:05:27;13.40;;;9.63;;
74612;SDS011;63119;51.788;8.824;2023-05-15T10:07:53;11.52;;;9.63;;
74612;SDS011;63119;51.788;8.824;2023-05-15T10:10:20;11.77;;;9.52;;
74612;SDS011;63119;51.788;8.824;2023-05-15T10:12:46;10.95;;;8.27;;
74612;SDS011;63119;51.788;8.824;2023-05-15T10:15:13;12.65;;;9.57;;
74612;SDS011;63119;51.788;8.824;2023-05-15T10:17:38;13.85;;;10.23;;
74612;SDS011;63119;51.788;8.824;2023-05-15T10:20:05;13.05;;;9.00;;
74612;SDS011;63119;51.788;8.824;2023-05-15T10:22:33;13.77;;;10.32;;
74612;SDS011;63119;51.788;8.824;2023-05-15T10:25:02;12.63;;;10.13;;
74612;SDS011;63119;51.788;8.824;2023-05-15T10:27:37;13.82;;;10.18;;
74612;SDS011;63119;51.788;8.824;2023-05-15T10:30:04;16.77;;;11.98;;
74612;SDS011;63119;51.788;8.824;2023-05-15T10:32:31;15.98;;;11.07;;
74612;SDS011;63119;51.788;8.824;2023-05-15T10:34:57;14.07;;;10.95;;
74612;SDS011;63119;51.788;8.824;2023-05-15T10:37:23;16.30;;;12.07;;
74612;SDS011;63119;51.788;8.824;2023-05-15T10:39:49;18.40;;;12.43;;
74612;SDS011;63119;51.788;8.824;2023-05-15T10:42:17;14.80;;;11.13;;
74612;SDS011;63119;51.788;8.824;2023-05-15T10:44:44;17.80;;;12.13;;
74612;SDS011;63119;51.788;8.824;2023-05-15T10:47:10;18.20;;;13.02;;
74612;SDS011;63119;51.788;8.824;2023-05-15T10:49:35;17.13;;;12.87;;
74612;SDS011;63119;51.788;8.824;2023-05-15T10:52:01;17.97;;;12.80;;
74612;SDS011;63119;51.788;8.824;2023-05-15T10:54:27;17.03;;;11.93;;
74612;SDS011;63119;51.788;8.824;2023-05-15T10:56:54;13.25;;;8.75;;
74612;SDS011;63119;51.788;8.824;2023-05-15T10:59:21;9.00;;;5.53;;
74612;SDS011;63119;51.788;8.824;2023-05-15T11:01:54;6.47;;;4.75;;
74612;SDS011;63119;51.788;8.824;2023-05-15T11:04:21;7.60;;;4.18;;
74612;SDS011;63119;51.788;8.824;2023-05-15T11:06:47;5.05;;;3.63;;
74612;SDS011;63119;51.788;8.824;2023-05-15T11:16:55;4.43;;;3.23;;
74612;SDS011;63119;51.788;8.824;2023-05-15T11:19:22;6.00;;;4.45;;
74612;SDS011;63119;51.788;8.824;2023-05-15T11:21:55;6.32;;;4.38;;
74612;SDS011;63119;51.788;8.824;2023-05-15T11:24:31;9.05;;;5.80;;
74612;SDS011;63119;51.788;8.824;2023-05-15T11:27:11;6.65;;;5.40;;
74612;SDS011;63119;51.788;8.824;2023-05-15T11:29:37;7.32;;;5.57;;
74612;SDS011;63119;51.788;8.824;2023-05-15T11:32:48;6.65;;;4.72;;
74612;SDS011;63119;51.788;8.824;2023-05-15T11:35:28;6.03;;;4.40;;
74612;SDS011;63119;51.788;8.824;2023-05-15T11:40:27;8.27;;;4.88;;
74612;SDS011;63119;51.788;8.824;2023-05-15T11:45:30;9.88;;;6.50;;
74612;SDS011;63119;51.788;8.824;2023-05-15T11:48:00;13.88;;;8.88;;
74612;SDS011;63119;51.788;8.824;2023-05-15T11:50:27;14.13;;;11.18;;
74612;SDS011;63119;51.788;8.824;2023-05-15T11:52:54;14.60;;;10.93;;
74612;SDS011;63119;51.788;8.824;2023-05-15T11:55:20;14.52;;;11.15;;
74612;SDS011;63119;51.788;8.824;2023-05-15T11:57:46;16.13;;;11.25;;
74612;SDS011;63119;51.788;8.824;2023-05-15T12:00:11;16.80;;;12.27;;
74612;SDS011;63119;51.788;8.824;2023-05-15T12:02:37;23.77;;;15.65;;
74612;SDS011;63119;51.788;8.824;2023-05-15T12:05:05;22.30;;;15.57;;
74612;SDS011;63119;51.788;8.824;2023-05-15T12:07:31;24.20;;;15.70;;
74612;SDS011;63119;51.788;8.824;2023-05-15T12:10:00;8.88;;;6.07;;
74612;SDS011;63119;51.788;8.824;2023-05-15T12:12:26;9.02;;;4.82;;
74612;SDS011;63119;51.788;8.824;2023-05-15T12:14:52;5.57;;;3.58;;
74612;SDS011;63119;51.788;8.824;2023-05-15T12:17:22;6.95;;;3.47;;
74612;SDS011;63119;51.788;8.824;2023-05-15T12:19:48;4.88;;;3.10;;
74612;SDS011;63119;51.788;8.824;2023-05-15T12:22:14;5.05;;;2.75;;
74612;SDS011;63119;51.788;8.824;2023-05-15T12:24:39;4.32;;;2.90;;
74612;SDS011;63119;51.788;8.824;2023-05-15T12:27:05;5.28;;;2.97;;
74612;SDS011;63119;51.788;8.824;2023-05-15T12:29:31;5.63;;;2.92;;
74612;SDS011;63119;51.788;8.824;2023-05-15T12:31:57;6.70;;;3.15;;
74612;SDS011;63119;51.788;8.824;2023-05-15T12:34:22;5.38;;;3.05;;
74612;SDS011;63119;51.788;8.824;2023-05-15T12:36:48;5.85;;;3.38;;
74612;SDS011;63119;51.788;8.824;2023-05-15T12:39:13;7.47;;;3.67;;
74612;SDS011;63119;51.788;8.824;2023-05-15T12:41:39;6.57;;;4.03;;
74612;SDS011;63119;51.788;8.824;2023-05-15T12:44:04;7.20;;;3.67;;
74612;SDS011;63119;51.788;8.824;2023-05-15T12:46:30;7.53;;;4.28;;
74612;SDS011;63119;51.788;8.824;2023-05-15T12:48:59;9.48;;;5.00;;
74612;SDS011;63119;51.788;8.824;2023-05-15T12:51:25;9.43;;;4.93;;
74612;SDS011;63119;51.788;8.824;2023-05-15T12:53:54;7.50;;;5.72;;
74612;SDS011;63119;51.788;8.824;2023-05-15T12:56:22;8.00;;;5.78;;
74612;SDS011;63119;51.788;8.824;2023-05-15T12:58:47;10.02;;;6.72;;
74612;SDS011;63119;51.788;8.824;2023-05-15T13:01:13;11.63;;;6.20;;
74612;SDS011;63119;51.788;8.824;2023-05-15T13:03:41;12.88;;;6.60;;
74612;SDS011;63119;51.788;8.824;2023-05-15T13:06:06;9.85;;;6.65;;
74612;SDS011;63119;51.788;8.824;2023-05-15T13:08:37;10.15;;;6.80;;
74612;SDS011;63119;51.788;8.824;2023-05-15T13:11:09;10.32;;;6.72;;
74612;SDS011;63119;51.788;8.824;2023-05-15T13:13:40;9.75;;;7.05;;
74612;SDS011;63119;51.788;8.824;2023-05-15T13:16:25;6.80;;;4.32;;
74612;SDS011;63119;51.788;8.824;2023-05-15T13:18:53;9.48;;;6.30;;
74612;SDS011;63119;51.788;8.824;2023-05-15T13:21:19;8.75;;;5.47;;
74612;SDS011;63119;51.788;8.824;2023-05-15T13:23:45;8.07;;;5.73;;
74612;SDS011;63119;51.788;8.824;2023-05-15T13:26:10;8.47;;;5.90;;
74612;SDS011;63119;51.788;8.824;2023-05-15T13:28:35;8.07;;;5.53;;
74612;SDS011;63119;51.788;8.824;2023-05-15T13:31:01;9.00;;;6.20;;
74612;SDS011;63119;51.788;8.824;2023-05-15T13:33:26;10.15;;;7.32;;
74612;SDS011;63119;51.788;8.824;2023-05-15T13:35:52;12.63;;;7.00;;
74612;SDS011;63119;51.788;8.824;2023-05-15T13:38:18;10.60;;;6.93;;
74612;SDS011;63119;51.788;8.824;2023-05-15T13:40:43;10.43;;;7.17;;
74612;SDS011;63119;51.788;8.824;2023-05-15T13:43:08;8.63;;;6.53;;
74612;SDS011;63119;51.788;8.824;2023-05-15T13:45:33;9.43;;;6.50;;
74612;SDS011;63119;51.788;8.824;2023-05-15T13:47:59;12.45;;;7.05;;
74612;SDS011;63119;51.788;8.824;2023-05-15T13:50:24;12.33;;;7.03;;
74612;SDS011;63119;51.788;8.824;2023-05-15T13:52:49;8.88;;;6.55;;
74612;SDS011;63119;51.788;8.824;2023-05-15T13:55:15;10.73;;;7.17;;
74612;SDS011;63119;51.788;8.824;2023-05-15T13:57:41;11.43;;;6.87;;
74612;SDS011;63119;51.788;8.824;2023-05-15T14:00:08;7.35;;;5.85;;
74612;SDS011;63119;51.788;8.824;2023-05-15T14:02:40;8.80;;;6.13;;
74612;SDS011;63119;51.788;8.824;2023-05-15T14:05:07;9.10;;;6.25;;
74612;SDS011;63119;51.788;8.824;2023-05-15T14:07:33;9.23;;;6.50;;
74612;SDS011;63119;51.788;8.824;2023-05-15T14:09:58;8.20;;;5.78;;
74612;SDS011;63119;51.788;8.824;2023-05-15T14:12:23;9.50;;;6.90;;
74612;SDS011;63119;51.788;8.824;2023-05-15T14:14:49;10.25;;;7.32;;
74612;SDS011;63119;51.788;8.824;2023-05-15T14:17:15;11.75;;;8.18;;
74612;SDS011;63119;51.788;8.824;2023-05-15T14:19:40;6.97;;;5.47;;
74612;SDS011;63119;51.788;8.824;2023-05-15T14:22:06;6.70;;;4.75;;
74612;SDS011;63119;51.788;8.824;2023-05-15T14:24:31;6.97;;;5.22;;
74612;SDS011;63119;51.788;8.824;2023-05-15T14:26:56;7.70;;;5.53;;
74612;SDS011;63119;51.788;8.824;2023-05-15T14:29:22;8.60;;;6.10;;
74612;SDS011;63119;51.788;8.824;2023-05-15T14:31:48;6.45;;;5.30;;
74612;SDS011;63119;51.788;8.824;2023-05-15T14:34:13;7.30;;;5.60;;
74612;SDS011;63119;51.788;8.824;2023-05-15T14:36:38;8.50;;;6.67;;
74612;SDS011;63119;51.788;8.824;2023-05-15T14:39:04;8.20;;;6.38;;
74612;SDS011;63119;51.788;8.824;2023-05-15T14:41:30;9.25;;;6.85;;
74612;SDS011;63119;51.788;8.824;2023-05-15T14:43:55;9.93;;;6.77;;
74612;SDS011;63119;51.788;8.824;2023-05-15T14:46:20;8.50;;;5.87;;
74612;SDS011;63119;51.788;8.824;2023-05-15T14:48:45;9.53;;;5.83;;
74612;SDS011;63119;51.788;8.824;2023-05-15T14:51:11;8.10;;;5.30;;
74612;SDS011;63119;51.788;8.824;2023-05-15T14:53:36;7.90;;;5.67;;
74612;SDS011;63119;51.788;8.824;2023-05-15T14:56:01;9.40;;;6.83;;
74612;SDS011;63119;51.788;8.824;2023-05-15T14:58:27;7.55;;;5.68;;
74612;SDS011;63119;51.788;8.824;2023-05-15T15:00:53;9.90;;;6.93;;
74612;SDS011;63119;51.788;8.824;2023-05-15T15:03:18;9.10;;;6.13;;
74612;SDS011;63119;51.788;8.824;2023-05-15T15:05:45;9.57;;;6.05;;
74612;SDS011;63119;51.788;8.824;2023-05-15T15:08:11;9.73;;;6.50;;
74612;SDS011;63119;51.788;8.824;2023-05-15T15:10:37;14.07;;;6.80;;
74612;SDS011;63119;51.788;8.824;2023-05-15T15:13:03;7.35;;;5.22;;
74612;SDS011;63119;51.788;8.824;2023-05-15T15:15:30;8.02;;;5.70;;
74612;SDS011;63119;51.788;8.824;2023-05-15T15:17:56;7.40;;;5.70;;